Time;durP1;ratioP1;P1;durP2;ratioP2;P2;SDS_P1;SDS_P2;PMS_P1;PMS_P2;Temp;Humidity;BMP_temperature;BMP_pressure;BME280_temperature;BME280_humidity;BME280_pressure;Samples;Min_cycle;Max_cycle;Signal;HPM_P1;HPM_P2
2023/09/05 00:00:16;;;;;;;8.20;5.80;;;14.90;99.90;;;;;;5071581;28;20509;-82
2023/09/05 00:02:44;;;;;;;8.68;5.82;;;14.90;99.90;;;;;;5053851;28;20128;-83
2023/09/05 00:05:11;;;;;;;8.73;6.05;;;14.90;99.90;;;;;;5054473;28;20464;-83
2023/09/05 00:07:38;;;;;;;7.50;4.97;;;14.80;99.90;;;;;;5072491;28;20048;-82
2023/09/05 00:10:12;;;;;;;7.95;5.70;;;14.90;99.90;;;;;;5055812;28;20048;-83
2023/09/05 00:12:43;;;;;;;11.02;6.00;;;14.90;99.90;;;;;;5068995;28;20074;-84
2023/09/05 00:15:10;;;;;;;10.40;6.30;;;14.90;99.90;;;;;;5055570;28;20119;-83
2023/09/05 00:17:37;;;;;;;8.20;5.75;;;14.90;99.90;;;;;;5072311;28;20040;-83
2023/09/05 00:20:04;;;;;;;11.27;6.05;;;14.90;99.90;;;;;;5072057;28;20119;-84
2023/09/05 00:22:30;;;;;;;7.97;5.75;;;14.90;99.90;;;;;;5068407;28;20037;-84
2023/09/05 00:24:55;;;;;;;8.55;6.03;;;14.90;99.90;;;;;;5053134;28;20036;-83
2023/09/05 00:27:21;;;;;;;9.68;6.18;;;14.90;99.90;;;;;;5055375;28;20098;-83
2023/09/05 00:29:46;;;;;;;9.30;6.00;;;14.90;99.90;;;;;;5073371;28;20047;-84
2023/09/05 00:32:13;;;;;;;11.60;6.75;;;14.90;99.90;;;;;;5054052;28;20040;-83
2023/09/05 00:34:39;;;;;;;9.65;6.50;;;15.00;99.90;;;;;;5069983;28;20048;-83
2023/09/05 00:37:08;;;;;;;10.20;6.72;;;15.00;99.90;;;;;;5055600;28;20384;-84
2023/09/05 00:39:35;;;;;;;10.77;7.70;;;14.90;99.90;;;;;;5072017;28;20071;-83
2023/09/05 00:42:03;;;;;;;9.63;7.18;;;14.90;99.90;;;;;;5069930;28;20043;-83
2023/09/05 00:44:29;;;;;;;11.13;6.68;;;14.80;99.90;;;;;;5053618;28;20119;-84
2023/09/05 00:46:58;;;;;;;10.38;7.00;;;14.80;99.90;;;;;;5073039;28;20068;-84
2023/09/05 00:49:27;;;;;;;11.05;6.35;;;14.70;99.90;;;;;;5072108;28;20032;-85
2023/09/05 00:51:55;;;;;;;9.45;6.13;;;14.80;99.90;;;;;;5070673;28;20508;-85
2023/09/05 00:54:21;;;;;;;10.60;6.60;;;14.90;99.90;;;;;;5051555;28;20037;-84
2023/09/05 00:56:48;;;;;;;9.63;6.63;;;14.80;99.90;;;;;;5071779;28;20047;-83
2023/09/05 00:59:14;;;;;;;8.30;5.82;;;14.80;99.90;;;;;;5054920;28;20127;-85
2023/09/05 01:01:40;;;;;;;9.48;6.22;;;14.80;99.90;;;;;;5069895;28;20048;-86
2023/09/05 01:04:06;;;;;;;9.57;6.80;;;14.80;99.90;;;;;;5067888;28;20051;-84
2023/09/05 01:07:06;;;;;;;10.43;6.65;;;14.80;99.90;;;;;;5067288;28;20382;-83
2023/09/05 01:09:34;;;;;;;10.50;6.78;;;14.80;99.90;;;;;;5071855;28;20447;-86
2023/09/05 01:12:00;;;;;;;11.63;7.13;;;14.70;99.90;;;;;;5071609;28;20033;-85
2023/09/05 01:14:26;;;;;;;12.52;7.45;;;14.70;99.90;;;;;;5058588;28;20064;-84
2023/09/05 01:16:53;;;;;;;11.38;6.63;;;14.70;99.90;;;;;;5033318;28;20073;-83
2023/09/05 01:19:19;;;;;;;10.73;6.97;;;14.70;99.90;;;;;;5044657;28;20040;-84
2023/09/05 01:21:58;;;;;;;11.00;7.32;;;14.70;99.90;;;;;;5050619;28;20378;-84
2023/09/05 01:24:24;;;;;;;9.60;7.18;;;14.60;99.90;;;;;;5031805;28;20137;-82
2023/09/05 01:26:51;;;;;;;11.07;7.50;;;14.60;99.90;;;;;;5059508;28;20465;-82
2023/09/05 01:29:26;;;;;;;10.63;7.40;;;14.60;99.90;;;;;;5044850;28;20555;-82
2023/09/05 01:31:53;;;;;;;9.30;6.90;;;14.60;99.90;;;;;;5045439;28;20033;-82
2023/09/05 01:34:19;;;;;;;11.55;7.45;;;14.60;99.90;;;;;;5050323;28;20040;-82
2023/09/05 01:36:44;;;;;;;10.45;6.88;;;14.60;99.90;;;;;;5048250;28;20123;-81
2023/09/05 01:39:10;;;;;;;11.45;8.15;;;14.60;99.90;;;;;;5018087;28;20044;-82
2023/09/05 01:41:35;;;;;;;11.20;7.53;;;14.60;99.90;;;;;;5037888;28;20090;-83
2023/09/05 01:44:01;;;;;;;11.50;8.00;;;14.60;99.90;;;;;;5056076;28;20163;-82
2023/09/05 01:46:27;;;;;;;11.23;7.60;;;14.60;99.90;;;;;;5061776;28;20072;-82
2023/09/05 01:48:52;;;;;;;10.15;7.13;;;14.60;99.90;;;;;;5056752;28;20093;-84
2023/09/05 01:51:18;;;;;;;10.55;7.65;;;14.60;99.90;;;;;;5073518;28;20036;-84
2023/09/05 01:53:43;;;;;;;12.80;7.88;;;14.60;99.90;;;;;;5074804;28;20037;-84
2023/09/05 01:56:09;;;;;;;10.25;7.75;;;14.60;99.90;;;;;;5071447;28;20147;-82
2023/09/05 01:58:34;;;;;;;10.85;7.95;;;14.60;99.90;;;;;;5073738;28;20094;-83
2023/09/05 02:01:03;;;;;;;10.02;7.72;;;14.60;99.90;;;;;;5058060;28;20040;-82
2023/09/05 02:03:29;;;;;;;10.25;6.75;;;14.60;99.90;;;;;;5076010;28;20121;-83
2023/09/05 02:05:55;;;;;;;10.77;6.28;;;14.60;99.90;;;;;;5056203;28;20068;-82
2023/09/05 02:08:20;;;;;;;9.82;6.78;;;14.70;99.90;;;;;;5057924;28;20040;-82
2023/09/05 02:10:46;;;;;;;11.10;7.50;;;14.60;99.90;;;;;;5074048;28;20040;-84
2023/09/05 02:13:12;;;;;;;9.20;7.30;;;14.60;99.90;;;;;;5058045;28;20147;-83
2023/09/05 02:15:38;;;;;;;9.65;6.40;;;14.70;99.90;;;;;;5054802;28;20400;-81
2023/09/05 02:18:10;;;;;;;10.80;7.28;;;14.70;99.90;;;;;;5091276;28;20036;-83
2023/09/05 02:20:39;;;;;;;;;;;14.60;99.90;;;;;;5058084;28;20072;-84
2023/09/05 02:23:06;;;;;;;9.05;6.45;;;14.70;99.90;;;;;;5074503;28;20326;-84
2023/09/05 02:25:32;;;;;;;10.80;7.30;;;14.60;99.90;;;;;;5071532;28;20041;-82
2023/09/05 02:27:57;;;;;;;9.18;7.03;;;14.60;99.90;;;;;;5024412;28;20063;-83
2023/09/05 02:30:24;;;;;;;8.85;6.07;;;14.70;99.90;;;;;;5074239;28;20056;-82
2023/09/05 02:32:54;;;;;;;7.93;5.25;;;14.70;99.90;;;;;;5075382;28;20036;-82
2023/09/05 02:35:27;;;;;;;9.18;5.88;;;14.70;99.90;;;;;;5074006;28;20511;-82
2023/09/05 02:37:53;;;;;;;10.38;6.82;;;14.70;99.90;;;;;;5034104;28;20053;-83
2023/09/05 02:40:19;;;;;;;10.40;6.72;;;14.70;99.90;;;;;;5034333;28;20037;-83
2023/09/05 02:42:45;;;;;;;10.00;6.90;;;14.60;99.90;;;;;;5072318;28;20545;-83
2023/09/05 02:45:12;;;;;;;10.57;6.70;;;14.60;99.90;;;;;;5057209;28;20498;-84
2023/09/05 02:47:38;;;;;;;10.15;7.22;;;14.60;99.90;;;;;;5054839;28;20079;-82
2023/09/05 02:50:04;;;;;;;10.65;7.00;;;14.50;99.90;;;;;;5069708;28;20090;-83
2023/09/05 02:52:32;;;;;;;10.82;7.30;;;14.50;99.90;;;;;;5056996;28;20035;-83
2023/09/05 02:54:57;;;;;;;9.70;7.30;;;14.50;99.90;;;;;;5057113;28;20032;-83
2023/09/05 02:57:23;;;;;;;10.65;6.90;;;14.40;99.90;;;;;;5053851;28;20044;-82
2023/09/05 02:59:52;;;;;;;10.25;7.15;;;14.40;99.90;;;;;;5056939;28;20043;-81
2023/09/05 03:02:18;;;;;;;9.75;7.28;;;14.30;99.90;;;;;;5073476;28;20032;-82
2023/09/05 03:04:44;;;;;;;12.55;7.90;;;14.30;99.90;;;;;;5074886;28;20047;-81
2023/09/05 03:07:09;;;;;;;10.05;7.28;;;14.20;99.90;;;;;;5053553;28;20036;-81
2023/09/05 03:09:35;;;;;;;11.10;8.15;;;14.30;99.90;;;;;;5071601;28;20392;-82
2023/09/05 03:12:01;;;;;;;9.88;7.15;;;14.20;99.90;;;;;;5056842;28;20040;-83
2023/09/05 03:14:27;;;;;;;10.90;8.00;;;14.20;99.90;;;;;;5056661;28;20094;-82
2023/09/05 03:16:52;;;;;;;10.70;7.35;;;14.20;99.90;;;;;;5054269;28;20053;-81
2023/09/05 03:19:21;;;;;;;10.57;7.60;;;14.20;99.90;;;;;;5074680;28;20123;-81
2023/09/05 03:21:47;;;;;;;10.52;7.30;;;14.20;99.90;;;;;;5055480;28;20504;-82
2023/09/05 03:24:17;;;;;;;10.45;7.32;;;14.20;99.90;;;;;;5073048;28;20602;-82
2023/09/05 03:26:46;;;;;;;12.73;7.63;;;14.20;99.90;;;;;;5071907;28;20504;-82
2023/09/05 03:29:13;;;;;;;10.45;7.43;;;14.10;99.90;;;;;;5056426;28;20037;-82
2023/09/05 03:31:39;;;;;;;10.27;7.40;;;14.10;99.90;;;;;;5071356;28;20040;-82
2023/09/05 03:34:05;;;;;;;9.68;7.38;;;14.10;99.90;;;;;;5072992;28;20062;-82
2023/09/05 03:36:32;;;;;;;11.77;8.02;;;14.20;99.90;;;;;;5070844;28;20070;-83
2023/09/05 03:38:57;;;;;;;13.25;7.60;;;14.10;99.90;;;;;;5069169;28;20438;-82
2023/09/05 03:41:23;;;;;;;10.05;7.55;;;14.10;99.90;;;;;;5056155;28;20041;-82
2023/09/05 03:43:49;;;;;;;9.70;7.43;;;14.10;99.90;;;;;;5073782;28;20036;-82
2023/09/05 03:46:14;;;;;;;11.57;7.93;;;14.10;99.90;;;;;;5070930;28;20467;-82
2023/09/05 03:48:40;;;;;;;11.52;7.95;;;14.10;99.90;;;;;;5072949;28;20037;-81
2023/09/05 03:51:05;;;;;;;10.90;8.25;;;14.10;99.90;;;;;;5072789;28;20032;-81
2023/09/05 03:53:31;;;;;;;11.85;8.40;;;14.10;99.90;;;;;;5056219;28;20032;-82
2023/09/05 03:55:56;;;;;;;12.63;9.05;;;14.10;99.90;;;;;;5054666;28;20048;-82
2023/09/05 03:58:22;;;;;;;11.20;8.23;;;14.10;99.90;;;;;;5072429;28;20044;-82
2023/09/05 04:00:48;;;;;;;11.30;9.00;;;14.10;99.90;;;;;;5071656;28;20138;-82
2023/09/05 04:03:14;;;;;;;12.13;9.23;;;14.10;99.90;;;;;;5072437;28;20089;-81
2023/09/05 04:05:40;;;;;;;11.48;8.52;;;14.10;99.90;;;;;;5070356;28;20041;-80
2023/09/05 04:08:06;;;;;;;12.73;9.27;;;14.10;99.90;;;;;;5072412;28;20039;-80
2023/09/05 04:10:32;;;;;;;14.65;9.40;;;14.10;99.90;;;;;;5073605;28;20055;-81
2023/09/05 04:12:58;;;;;;;14.45;9.10;;;14.10;99.90;;;;;;5072017;28;20481;-82
2023/09/05 04:15:23;;;;;;;11.00;8.50;;;14.10;99.90;;;;;;5070294;28;20075;-83
2023/09/05 04:17:52;;;;;;;11.88;9.27;;;14.10;99.90;;;;;;5055573;28;20453;-82
2023/09/05 04:20:18;;;;;;;10.82;8.75;;;14.10;99.90;;;;;;5072334;28;20036;-81
2023/09/05 04:22:45;;;;;;;13.02;9.27;;;14.00;99.90;;;;;;5054194;28;20036;-81
2023/09/05 04:25:10;;;;;;;11.60;8.65;;;14.00;99.90;;;;;;5055343;28;20036;-81
2023/09/05 04:27:36;;;;;;;11.40;8.88;;;14.00;99.90;;;;;;5053724;28;20435;-81
2023/09/05 04:30:03;;;;;;;12.23;8.80;;;14.00;99.90;;;;;;5072051;28;20044;-81
2023/09/05 04:32:31;;;;;;;11.10;8.52;;;14.00;99.90;;;;;;5072172;28;20388;-81
2023/09/05 04:34:58;;;;;;;12.27;8.32;;;14.00;99.90;;;;;;5072002;28;20563;-81
2023/09/05 04:37:24;;;;;;;11.23;8.70;;;14.00;99.90;;;;;;5069007;28;20123;-82
2023/09/05 04:39:50;;;;;;;12.23;9.10;;;13.90;99.90;;;;;;5055523;28;20044;-82
2023/09/05 04:42:16;;;;;;;11.93;9.20;;;14.00;99.90;;;;;;5071753;28;20037;-82
2023/09/05 04:44:42;;;;;;;11.65;8.90;;;13.90;99.90;;;;;;5073097;28;20396;-82
2023/09/05 04:47:27;;;;;;;15.20;8.48;;;13.90;99.90;;;;;;5071193;28;20040;-82
2023/09/05 04:49:58;;;;;;;10.38;7.97;;;13.90;99.90;;;;;;5072057;28;20170;-82
2023/09/05 04:52:28;;;;;;;11.07;8.35;;;13.90;99.90;;;;;;5071883;28;20396;-82
2023/09/05 04:54:56;;;;;;;12.98;8.48;;;13.90;99.90;;;;;;5071865;28;20099;-82
2023/09/05 04:57:21;;;;;;;10.35;7.70;;;13.90;99.90;;;;;;5071219;28;20036;-82
2023/09/05 04:59:47;;;;;;;10.65;8.05;;;13.90;99.90;;;;;;5055008;28;20058;-82
2023/09/05 05:02:14;;;;;;;11.10;8.32;;;13.90;99.90;;;;;;5054936;28;20040;-83
2023/09/05 05:04:41;;;;;;;11.63;8.57;;;13.90;99.90;;;;;;5071642;28;20047;-83
2023/09/05 05:07:07;;;;;;;10.55;8.75;;;13.90;99.90;;;;;;5068274;28;20029;-83
2023/09/05 05:09:34;;;;;;;13.25;9.10;;;13.90;99.90;;;;;;5071786;28;20400;-82
2023/09/05 05:12:00;;;;;;;12.88;8.50;;;13.90;99.90;;;;;;5074279;28;20366;-82
2023/09/05 05:14:26;;;;;;;10.95;7.65;;;13.90;99.90;;;;;;5075783;28;20032;-82
2023/09/05 05:16:53;;;;;;;12.45;9.50;;;13.90;99.90;;;;;;5054590;28;20488;-83
2023/09/05 05:19:22;;;;;;;12.00;9.02;;;13.90;99.90;;;;;;5075771;28;20048;-83
2023/09/05 05:21:49;;;;;;;12.38;9.23;;;13.90;99.90;;;;;;5057844;28;20094;-82
2023/09/05 05:24:14;;;;;;;12.57;8.80;;;13.90;99.90;;;;;;5056161;28;20044;-83
2023/09/05 05:26:41;;;;;;;13.60;9.57;;;14.00;99.90;;;;;;5056861;28;20174;-82
2023/09/05 05:29:06;;;;;;;11.93;9.88;;;14.10;99.90;;;;;;5076752;28;20040;-83
2023/09/05 05:31:33;;;;;;;13.93;11.18;;;14.10;99.90;;;;;;5074288;28;20105;-82
2023/09/05 05:33:59;;;;;;;15.55;10.65;;;14.10;99.90;;;;;;5075133;28;20041;-83
2023/09/05 05:36:25;;;;;;;14.05;10.70;;;14.10;99.90;;;;;;5072080;28;20066;-83
2023/09/05 05:38:50;;;;;;;13.65;10.60;;;14.10;99.90;;;;;;5058566;28;20488;-83
2023/09/05 05:41:16;;;;;;;14.68;10.68;;;14.10;99.90;;;;;;5075107;28;20036;-83
2023/09/05 05:43:42;;;;;;;13.82;10.63;;;14.20;99.90;;;;;;5075245;28;20473;-83
2023/09/05 05:46:09;;;;;;;15.63;10.80;;;14.20;99.90;;;;;;5056621;28;20036;-83
2023/09/05 05:48:35;;;;;;;13.70;10.85;;;14.20;99.90;;;;;;5075270;28;20040;-83
2023/09/05 05:51:01;;;;;;;13.40;10.07;;;14.30;99.90;;;;;;5054910;28;20477;-83
2023/09/05 05:53:28;;;;;;;12.43;9.60;;;14.30;99.90;;;;;;5058187;28;20032;-83
2023/09/05 05:55:53;;;;;;;11.15;8.50;;;14.30;99.90;;;;;;5056518;28;20127;-83
2023/09/05 05:58:19;;;;;;;13.50;8.48;;;14.40;99.90;;;;;;5058103;28;20072;-83
2023/09/05 06:00:50;;;;;;;12.02;8.65;;;14.40;99.90;;;;;;5058188;28;20485;-84
2023/09/05 06:03:20;;;;;;;12.50;8.88;;;14.50;99.90;;;;;;5074965;28;20051;-83
2023/09/05 06:05:47;;;;;;;11.85;8.90;;;14.50;99.90;;;;;;5069861;28;20498;-83
2023/09/05 06:08:13;;;;;;;12.23;8.68;;;14.50;99.90;;;;;;5038045;28;20037;-83
2023/09/05 06:10:39;;;;;;;12.00;9.25;;;14.60;99.90;;;;;;5057935;28;20033;-84
2023/09/05 06:13:05;;;;;;;12.35;9.13;;;14.60;99.90;;;;;;5073510;28;20541;-84
2023/09/05 06:15:34;;;;;;;13.00;10.23;;;14.60;99.90;;;;;;5057772;28;20044;-84
2023/09/05 06:18:04;;;;;;;15.57;10.07;;;14.70;99.90;;;;;;5075666;28;20051;-84
2023/09/05 06:20:32;;;;;;;14.80;10.70;;;14.80;99.90;;;;;;5069891;28;20041;-83
2023/09/05 06:22:58;;;;;;;12.40;8.90;;;14.80;99.90;;;;;;5056277;28;20493;-84
2023/09/05 06:25:24;;;;;;;12.45;9.75;;;14.90;99.90;;;;;;5057484;28;20036;-84
2023/09/05 06:27:50;;;;;;;13.57;10.02;;;15.00;99.90;;;;;;5074112;28;20136;-84
2023/09/05 06:30:16;;;;;;;13.05;10.38;;;15.10;99.90;;;;;;5065247;28;20115;-84
2023/09/05 06:32:42;;;;;;;12.50;10.00;;;15.10;99.90;;;;;;5054917;28;20044;-84
2023/09/05 06:35:09;;;;;;;12.95;9.82;;;15.20;99.90;;;;;;5051372;28;20055;-85
2023/09/05 06:37:36;;;;;;;13.48;10.23;;;15.20;99.90;;;;;;5038990;28;20493;-84
2023/09/05 06:40:08;;;;;;;16.00;11.05;;;15.30;99.90;;;;;;5050233;28;20044;-84
2023/09/05 06:42:33;;;;;;;11.88;9.27;;;15.40;99.90;;;;;;5049575;28;20034;-85
2023/09/05 06:44:59;;;;;;;14.27;11.05;;;15.40;99.90;;;;;;5042026;28;20037;-85
2023/09/05 06:47:24;;;;;;;14.75;10.48;;;15.50;99.90;;;;;;5043687;28;20083;-84
2023/09/05 06:49:50;;;;;;;13.50;10.35;;;15.50;99.90;;;;;;5053424;28;20029;-85
2023/09/05 06:52:16;;;;;;;13.77;11.15;;;15.60;99.90;;;;;;5037642;28;20110;-85
2023/09/05 06:54:41;;;;;;;14.77;10.98;;;15.70;99.90;;;;;;5054929;28;20041;-85
2023/09/05 06:57:08;;;;;;;13.80;11.00;;;15.80;99.90;;;;;;5051105;28;20128;-84
2023/09/05 06:59:35;;;;;;;12.52;9.52;;;15.90;99.90;;;;;;5029919;28;20174;-85
2023/09/05 07:02:02;;;;;;;13.50;9.32;;;15.90;99.90;;;;;;5022849;28;20049;-83
2023/09/05 07:04:31;;;;;;;12.10;9.30;;;16.10;99.90;;;;;;5034626;28;20034;-96
2023/09/05 07:06:57;;;;;;;12.63;9.07;;;16.20;99.90;;;;;;5049038;28;20045;-94
2023/09/05 07:09:24;;;;;;;13.23;9.85;;;16.40;99.90;;;;;;5055922;28;20036;-95
2023/09/05 07:11:49;;;;;;;11.43;9.52;;;16.40;99.90;;;;;;5057980;28;20040;-87
2023/09/05 07:14:15;;;;;;;12.32;8.90;;;16.50;99.90;;;;;;5052818;28;20037;-95
2023/09/05 07:16:40;;;;;;;12.23;9.35;;;16.60;99.90;;;;;;5038207;28;20042;-91
2023/09/05 07:19:06;;;;;;;12.55;9.20;;;16.70;99.90;;;;;;5052552;28;20073;-96
2023/09/05 07:21:36;;;;;;;14.80;10.40;;;16.70;99.90;;;;;;5030016;28;20224;-96
2023/09/05 07:24:02;;;;;;;11.85;9.30;;;16.90;99.90;;;;;;5053497;28;20052;-96
2023/09/05 07:26:28;;;;;;;13.88;10.13;;;16.90;99.90;;;;;;5041790;23;20061;-96
2023/09/05 07:28:54;;;;;;;14.05;9.80;;;17.00;99.90;;;;;;5028604;28;20107;-96
2023/09/05 07:31:22;;;;;;;12.35;9.27;;;17.10;99.90;;;;;;5032493;28;20037;-96
2023/09/05 07:34:07;;;;;;;12.35;9.35;;;17.20;99.90;;;;;;5036436;22;20065;-86
2023/09/05 07:36:35;;;;;;;10.88;8.63;;;17.30;99.90;;;;;;4980199;28;20129;-86
2023/09/05 07:39:02;;;;;;;10.60;7.88;;;17.40;99.90;;;;;;4980271;28;20038;-86
2023/09/05 07:41:32;;;;;;;10.48;7.93;;;17.50;99.90;;;;;;4998094;28;20080;-86
2023/09/05 07:43:58;;;;;;;10.35;8.20;;;17.60;99.90;;;;;;4996072;28;20081;-86
2023/09/05 07:46:24;;;;;;;10.20;7.53;;;17.70;99.90;;;;;;4994289;28;20061;-86
2023/09/05 07:48:49;;;;;;;10.00;6.93;;;17.80;99.90;;;;;;4994441;28;20038;-85
2023/09/05 07:51:15;;;;;;;9.48;6.88;;;17.90;99.90;;;;;;4994067;28;20061;-86
2023/09/05 07:53:49;;;;;;;9.45;7.00;;;17.90;99.90;;;;;;4993234;28;20030;-86
2023/09/05 07:56:14;;;;;;;10.18;6.68;;;18.10;99.90;;;;;;4978404;28;20092;-85
2023/09/05 07:58:41;;;;;;;10.00;7.10;;;18.10;99.90;;;;;;5013392;28;20417;-86
2023/09/05 08:01:09;;;;;;;9.77;6.25;;;18.20;99.90;;;;;;4994298;28;20044;-86
2023/09/05 08:03:36;;;;;;;9.07;6.65;;;18.30;99.90;;;;;;5011733;28;20072;-86
2023/09/05 08:06:03;;;;;;;8.68;5.93;;;18.40;99.90;;;;;;5014135;28;20494;-86
2023/09/05 08:08:34;;;;;;;8.75;6.40;;;18.50;99.90;;;;;;4979582;28;20042;-86
2023/09/05 08:11:00;;;;;;;9.43;6.07;;;18.60;99.90;;;;;;4995011;28;20512;-86
2023/09/05 08:13:25;;;;;;;9.60;5.35;;;18.70;99.90;;;;;;4978705;28;20529;-87
2023/09/05 08:15:53;;;;;;;10.55;5.85;;;18.80;99.90;;;;;;4978069;28;20041;-87
2023/09/05 08:18:19;;;;;;;7.85;5.35;;;18.90;99.90;;;;;;4995314;28;20054;-86
2023/09/05 08:20:44;;;;;;;8.35;5.15;;;19.00;99.90;;;;;;4979024;28;20096;-86
2023/09/05 08:23:10;;;;;;;8.45;5.25;;;19.00;99.90;;;;;;5012330;28;20041;-87
2023/09/05 08:25:36;;;;;;;8.85;5.60;;;19.10;99.90;;;;;;4993650;28;20021;-86
2023/09/05 08:28:02;;;;;;;7.88;4.88;;;19.20;99.90;;;;;;4995675;28;20490;-86
2023/09/05 08:30:28;;;;;;;9.15;5.03;;;19.30;99.90;;;;;;4994356;28;20122;-86
2023/09/05 08:33:03;;;;;;;11.00;5.60;;;19.30;99.90;;;;;;4977504;28;20406;-86
2023/09/05 08:35:29;;;;;;;9.70;4.85;;;19.50;99.90;;;;;;5010273;28;20077;-86
2023/09/05 08:37:54;;;;;;;8.07;4.68;;;19.60;99.90;;;;;;4994827;28;20076;-86
2023/09/05 08:40:20;;;;;;;8.82;4.32;;;19.80;99.90;;;;;;5008497;28;20100;-86
2023/09/05 08:42:53;;;;;;;7.32;4.60;;;19.80;99.90;;;;;;4994360;28;20069;-85
2023/09/05 08:45:22;;;;;;;8.77;4.70;;;20.00;99.90;;;;;;4976793;28;20483;-86
2023/09/05 08:47:48;;;;;;;6.63;4.10;;;20.20;99.90;;;;;;4995429;28;20072;-84
2023/09/05 08:50:14;;;;;;;6.50;3.85;;;20.20;99.90;;;;;;4994788;28;20414;-82
2023/09/05 08:52:42;;;;;;;10.55;4.70;;;20.40;99.90;;;;;;5010806;28;20041;-83
2023/09/05 08:55:09;;;;;;;9.20;4.63;;;20.50;99.90;;;;;;4994625;28;20042;-85
2023/09/05 08:57:38;;;;;;;9.40;4.35;;;20.60;99.90;;;;;;4995588;28;20046;-84
2023/09/05 09:00:06;;;;;;;7.30;4.05;;;20.70;99.90;;;;;;4993917;28;20038;-85
2023/09/05 09:02:32;;;;;;;6.72;3.97;;;20.80;99.90;;;;;;4993422;28;20050;-85
2023/09/05 09:04:58;;;;;;;8.77;4.05;;;20.90;99.90;;;;;;4996009;28;20438;-85
2023/09/05 09:07:30;;;;;;;7.22;4.72;;;20.90;99.90;;;;;;4994721;28;20089;-84
2023/09/05 09:09:59;;;;;;;6.95;4.00;;;21.10;99.90;;;;;;4978184;28;20145;-85
2023/09/05 09:12:33;;;;;;;7.88;3.80;;;21.20;99.90;;;;;;4995050;28;20046;-85
2023/09/05 09:15:14;;;;;;;7.50;3.70;;;21.30;99.90;;;;;;5010414;28;20037;-85
2023/09/05 09:17:41;;;;;;;10.60;4.03;;;21.40;99.90;;;;;;4977155;28;20042;-85
2023/09/05 09:20:12;;;;;;;7.90;3.67;;;21.50;99.90;;;;;;4978532;28;20042;-85
2023/09/05 09:22:38;;;;;;;6.95;3.80;;;21.60;99.90;;;;;;4975186;28;20128;-85
2023/09/05 09:25:14;;;;;;;6.88;3.75;;;21.70;99.90;;;;;;4995118;28;20379;-85
2023/09/05 09:27:44;;;;;;;7.22;3.85;;;21.90;99.90;;;;;;4994196;28;20077;-84
2023/09/05 09:30:10;;;;;;;7.28;3.92;;;22.00;99.90;;;;;;4992762;28;20034;-86
2023/09/05 09:32:37;;;;;;;8.10;3.80;;;22.10;99.90;;;;;;4992746;28;20182;-85
2023/09/05 09:35:05;;;;;;;6.15;3.75;;;22.20;99.90;;;;;;4994856;28;20038;-85
2023/09/05 09:37:31;;;;;;;6.25;3.80;;;22.20;99.90;;;;;;4978892;28;20047;-85
2023/09/05 09:40:02;;;;;;;9.02;3.50;;;22.30;99.90;;;;;;4978761;28;20050;-85
2023/09/05 09:42:28;;;;;;;7.85;3.65;;;22.50;99.90;;;;;;5013320;28;20037;-85
2023/09/05 09:44:55;;;;;;;6.45;3.67;;;22.60;99.90;;;;;;4994832;28;20560;-85
2023/09/05 09:47:21;;;;;;;6.53;3.13;;;22.70;99.90;;;;;;5012738;28;20080;-86
2023/09/05 09:49:50;;;;;;;5.85;2.92;;;22.70;99.90;;;;;;4993430;28;20061;-85
2023/09/05 09:52:19;;;;;;;7.05;3.60;;;22.90;99.90;;;;;;4994646;28;20505;-85
2023/09/05 09:54:46;;;;;;;6.57;2.97;;;23.00;99.90;;;;;;4992856;28;20042;-85
2023/09/05 09:57:20;;;;;;;4.80;2.88;;;23.00;99.90;;;;;;4993024;28;20545;-85
2023/09/05 09:59:53;;;;;;;5.28;2.92;;;23.20;99.90;;;;;;4998738;28;20061;-85
2023/09/05 10:02:20;;;;;;;7.20;3.30;;;23.30;99.90;;;;;;4997293;28;20077;-86
2023/09/05 10:04:48;;;;;;;4.70;3.13;;;23.20;99.90;;;;;;4997563;28;20046;-86
2023/09/05 10:07:15;;;;;;;5.78;2.85;;;23.40;99.90;;;;;;4997010;28;20481;-84
2023/09/05 10:09:44;;;;;;;6.97;2.78;;;23.50;99.90;;;;;;4982046;28;20044;-86
2023/09/05 10:12:11;;;;;;;5.50;2.78;;;23.60;99.90;;;;;;5013714;28;20486;-86
2023/09/05 10:14:40;;;;;;;8.10;3.30;;;23.70;99.90;;;;;;4998539;28;20560;-78
2023/09/05 10:17:06;;;;;;;6.40;3.10;;;23.80;99.90;;;;;;5014461;28;20042;-81
2023/09/05 10:19:32;;;;;;;7.45;3.20;;;23.90;99.90;;;;;;4998134;28;20034;-83
2023/09/05 10:21:59;;;;;;;6.57;2.80;;;23.90;99.90;;;;;;4980235;28;20148;-81
2023/09/05 10:24:27;;;;;;;5.80;3.17;;;24.00;99.90;;;;;;4997775;28;20088;-82
2023/09/05 10:26:53;;;;;;;7.32;2.97;;;24.00;99.90;;;;;;4997113;28;20038;-82
2023/09/05 10:29:32;;;;;;;5.22;3.05;;;24.20;99.90;;;;;;4998173;28;20429;-82
2023/09/05 10:31:58;;;;;;;7.18;3.28;;;24.20;99.90;;;;;;4980833;28;20042;-82
2023/09/05 10:34:45;;;;;;;5.32;3.00;;;24.30;99.90;;;;;;4986494;28;20525;-83
2023/09/05 10:37:12;;;;;;;6.15;3.05;;;24.40;99.90;;;;;;4973680;28;20056;-85
2023/09/05 10:39:45;;;;;;;7.13;2.95;;;24.40;99.90;;;;;;4995951;28;20132;-76
2023/09/05 10:42:14;;;;;;;7.13;2.80;;;24.40;99.90;;;;;;4995246;28;20041;-82
2023/09/05 10:44:41;;;;;;;7.50;3.10;;;24.50;99.90;;;;;;4997253;28;20077;-82
2023/09/05 10:47:29;;;;;;;7.35;3.60;;;24.50;99.90;;;;;;4981177;28;20037;-81
2023/09/05 10:49:59;;;;;;;7.65;3.60;;;24.50;99.90;;;;;;4962486;28;20435;-82
2023/09/05 10:52:27;;;;;;;6.68;3.10;;;24.60;99.90;;;;;;5005542;28;20068;-82
2023/09/05 10:54:53;;;;;;;4.70;2.85;;;24.70;99.90;;;;;;4995932;28;20136;-82
2023/09/05 10:57:37;;;;;;;5.22;2.85;;;24.70;99.90;;;;;;4996935;28;20042;-81
2023/09/05 11:00:17;;;;;;;7.20;3.33;;;24.80;99.90;;;;;;4994282;28;20105;-82
2023/09/05 11:02:44;;;;;;;4.38;2.85;;;24.80;99.90;;;;;;4989026;28;20129;-82
2023/09/05 11:05:18;;;;;;;6.45;2.58;;;24.80;99.90;;;;;;4980475;28;20050;-82
2023/09/05 11:07:44;;;;;;;4.30;2.45;;;25.00;99.90;;;;;;4996343;28;20046;-82
2023/09/05 11:10:33;;;;;;;4.45;2.40;;;25.00;99.90;;;;;;4995358;28;20038;-82
2023/09/05 11:13:08;;;;;;;8.20;2.80;;;25.10;99.90;;;;;;5006740;28;20095;-82
2023/09/05 11:15:43;;;;;;;5.13;2.70;;;25.00;99.90;;;;;;4999578;28;20041;-82
2023/09/05 11:18:11;;;;;;;4.50;2.30;;;25.00;99.90;;;;;;5012963;28;20063;-82
2023/09/05 11:20:41;;;;;;;6.60;2.67;;;25.10;99.90;;;;;;4996623;28;20076;-82
2023/09/05 11:23:15;;;;;;;7.60;2.30;;;25.10;99.90;;;;;;4997173;28;20100;-82
2023/09/05 11:25:46;;;;;;;4.40;2.50;;;25.30;99.90;;;;;;4996421;28;20034;-82
2023/09/05 11:28:13;;;;;;;3.95;2.28;;;25.20;99.90;;;;;;4979423;28;20044;-82
2023/09/05 11:30:40;;;;;;;5.13;2.50;;;25.30;99.90;;;;;;4996313;28;20045;-82
2023/09/05 11:33:10;;;;;;;5.93;2.88;;;25.40;99.90;;;;;;4993257;28;20134;-82
2023/09/05 11:35:38;;;;;;;6.43;2.63;;;25.50;99.90;;;;;;4997177;28;20076;-83
2023/09/05 11:38:03;;;;;;;6.38;2.47;;;25.50;99.90;;;;;;5013939;28;20538;-82
2023/09/05 11:40:30;;;;;;;5.30;2.45;;;25.60;99.90;;;;;;4996208;28;20065;-82
2023/09/05 11:43:07;;;;;;;4.40;2.30;;;25.70;99.90;;;;;;4979197;28;20115;-82
2023/09/05 11:45:34;;;;;;;6.78;2.28;;;25.80;99.90;;;;;;4979159;28;20042;-81
2023/09/05 11:48:06;;;;;;;3.92;2.10;;;25.80;99.90;;;;;;4994223;28;20044;-84
2023/09/05 11:50:32;;;;;;;5.93;2.40;;;25.90;99.90;;;;;;4980558;28;20069;-78
2023/09/05 11:52:59;;;;;;;5.53;2.60;;;25.80;99.90;;;;;;5013880;28;20034;-84
2023/09/05 11:55:25;;;;;;;6.10;2.25;;;25.80;99.90;;;;;;4980117;28;20132;-84
2023/09/05 11:57:55;;;;;;;5.03;2.53;;;25.80;99.90;;;;;;4996643;28;20037;-84
2023/09/05 12:00:23;;;;;;;5.13;2.05;;;25.80;99.90;;;;;;4980235;28;20042;-84
2023/09/05 12:02:51;;;;;;;4.00;2.22;;;25.80;99.90;;;;;;4979158;28;20038;-83
2023/09/05 12:05:19;;;;;;;5.97;2.40;;;25.80;99.90;;;;;;4995094;28;20037;-84
2023/09/05 12:07:49;;;;;;;6.80;2.20;;;25.80;99.90;;;;;;4978520;28;20033;-84
2023/09/05 12:10:15;;;;;;;3.80;2.10;;;25.80;99.90;;;;;;5013364;28;20042;-84
2023/09/05 12:12:54;;;;;;;5.53;2.08;;;25.80;99.90;;;;;;4994573;28;20083;-83
2023/09/05 12:15:37;;;;;;;5.80;2.00;;;25.90;99.90;;;;;;4979285;28;20046;-84
2023/09/05 12:18:06;;;;;;;3.35;1.67;;;25.90;99.90;;;;;;4994749;28;20494;-84
2023/09/05 12:20:33;;;;;;;5.03;2.00;;;25.90;99.90;;;;;;4982431;28;20052;-84
2023/09/05 12:22:59;;;;;;;4.28;1.80;;;25.80;99.90;;;;;;5008531;28;20042;-84
2023/09/05 12:25:27;;;;;;;3.42;1.70;;;25.80;99.90;;;;;;4979579;28;20042;-84
2023/09/05 12:27:58;;;;;;;5.90;2.00;;;25.80;99.90;;;;;;4994439;28;20041;-83
2023/09/05 12:30:32;;;;;;;6.35;2.20;;;26.00;99.90;;;;;;4978045;28;20104;-83
2023/09/05 12:33:03;;;;;;;5.63;2.28;;;26.10;99.90;;;;;;4995565;28;20045;-83
2023/09/05 12:35:31;;;;;;;3.95;1.73;;;26.10;99.90;;;;;;4978433;28;20041;-84
2023/09/05 12:37:58;;;;;;;6.22;1.80;;;26.10;99.90;;;;;;4995693;28;20041;-84
2023/09/05 12:40:25;;;;;;;4.82;1.90;;;26.20;99.90;;;;;;5012403;28;20038;-84
2023/09/05 12:42:51;;;;;;;5.28;2.25;;;26.10;99.90;;;;;;5012081;28;20078;-85